• Join FlightAware (Why Join?)
  • Login
  • US Flag 
08:11AM EDT


 

Airport Tracker/Info


-or-


 

Live Flight TrackerFlight Track Log ✈ SKW5550 ✈ 20-Oct-2013 ✈ KDEN - KSMF

Flight Track Log - Related Links

Times and Time Zones

All times are in EDT time to prevent confusion due to time zone crossing. See the SKW5550 flight status page for this flight to view local times or setup timezone preferences in your user account.

Time Position Orientation Groundspeed Altitude Reporting Facility
EDT Latitude Longitude Course Direction KTS MPH feet Rate Location/Type
06:11PM 39.9167 -104.7667 281° West 247 284 7,700  Level Denver TRACON
06:12PM 39.9333 -104.8500 285° West 281 323 9,900 2,280 Climbing Denver TRACON
06:14PM 39.9469 -104.9842 278° West 290 334 12,900 2,160 Climbing Denver Center
06:15PM 39.9589 -105.0933 278° West 286 329 14,900 1,740 Climbing Denver Center
06:16PM 39.9703 -105.2000 278° West 296 341 16,600 1,440 Climbing Denver Center
06:17PM 39.8622 -105.5384 281° West  Level Estimated
06:17PM 39.9844 -105.3244 278° West 320 368 17,900  Level Denver Center
06:18PM 39.9814 -105.4450 268° West 332 382 19,200 1,320 Climbing Denver Center
06:19PM 39.9781 -105.5792 268° West 343 395 20,700 1,500 Climbing Denver Center
06:20PM 39.9733 -105.7028 267° West 342 394 22,300 1,080 Climbing Denver Center
06:21PM 39.9719 -105.8253 269° West 339 390 23,000 840 Climbing Denver Center
06:22PM 39.9747 -105.9517 272° West 347 399 24,100 960 Climbing Denver Center
06:23PM 39.9842 -106.0800 276° West 355 409 25,000 780 Climbing Denver Center
06:24PM 39.9908 -106.2086 274° West 356 410 25,800 660 Climbing Denver Center
06:25PM 39.9989 -106.3683 274° West 367 422 26,400 480 Climbing Denver Center
06:26PM 40.0139 -106.5086 278° West 373 429 26,900 600 Climbing Denver Center
06:27PM 40.0339 -106.6414 281° West 377 434 27,700 720 Climbing Denver Center
06:28PM 40.0536 -106.7683 282° West 374 430 28,400 780 Climbing Denver Center
06:29PM 40.0758 -106.9169 281° West 372 428 29,400 600 Climbing Denver Center
06:30PM 40.0956 -107.0442 281° West 374 430 29,700 300 Climbing Denver Center
06:31PM 40.1169 -107.1922 281° West 373 429 30,100 420 Climbing Denver Center
06:32PM 40.1369 -107.3206 282° West 376 433 30,600 480 Climbing Denver Center
06:33PM 40.1589 -107.4681 281° West 373 429 31,200 480 Climbing Denver Center
06:34PM 40.1767 -107.5950 280° West 373 429 31,600 360 Climbing Denver Center
06:35PM 40.1978 -107.7397 281° West 366 421 32,000 180 Climbing Denver Center
06:36PM 40.2164 -107.8672 281° West 371 427 32,000  Level Denver Center
06:38PM 40.2381 -108.0222 280° West 385 443 32,000  Level Denver Center
06:39PM 40.2558 -108.1553 280° West 389 448 32,000  Level Denver Center
06:40PM 40.2792 -108.3142 281° West 398 458 32,000  Level Denver Center
06:40PM 40.2928 -108.4103 281° West 400 460 32,000  Level Salt Lake Center
06:41PM 40.3111 -108.5506 280° West 406 467 32,000  Level Salt Lake Center
06:42PM 40.3333 -108.7128 280° West 406 467 32,000  Level Salt Lake Center
06:43PM 40.3542 -108.8675 280° West 406 467 32,000  Level Salt Lake Center
06:44PM 40.3731 -109.0047 280° West 404 465 32,000  Level Salt Lake Center
06:45PM 40.3942 -109.1644 280° West 400 460 32,000  Level Salt Lake Center
06:46PM 40.4122 -109.3036 280° West 403 464 32,000  Level Salt Lake Center
06:48PM 40.4300 -109.4442 279° West 408 470 32,000  Level Salt Lake Center
06:49PM 40.4394 -109.6131 274° West 418 481 32,000  Level Salt Lake Center
06:50PM 40.4294 -109.7650 265° West 436 502 32,000  Level Salt Lake Center
06:51PM 40.4164 -109.9417 265° West 436 502 32,000  Level Salt Lake Center
06:52PM 40.4061 -110.0944 265° West 439 505 32,000  Level Salt Lake Center
06:53PM 40.3922 -110.2711 264° West 437 503 32,000  Level Salt Lake Center
06:54PM 40.3811 -110.4222 265° West 436 502 32,000  Level Salt Lake Center
06:55PM 40.3681 -110.5917 264° West 440 506 32,000  Level Salt Lake Center
06:56PM 40.3567 -110.7403 264° West 442 509 32,000  Level Salt Lake Center
06:57PM 40.3431 -110.9008 264° West 443 510 32,000  Level Salt Lake Center
06:58PM 40.3267 -111.0928 264° West 444 511 32,000  Level Salt Lake Center
06:59PM 40.3133 -111.2544 264° West 446 513 32,000  Level Salt Lake Center
07:01PM 40.2856 -111.5786 264° West 449 517 32,000  Level Salt Lake Center
07:02PM 40.2722 -111.7428 264° West 457 526 32,000  Level Salt Lake Center
07:03PM 40.2561 -111.9075 263° West 454 522 32,000  Level Salt Lake Center
07:04PM 40.2417 -112.0697 263° West 449 517 32,000  Level Salt Lake Center
07:05PM 40.2269 -112.2300 263° West 445 512 32,000  Level Salt Lake Center
07:06PM 40.2111 -112.3964 263° West 453 521 32,000  Level Salt Lake Center
07:07PM 40.1956 -112.5589 263° West 450 518 32,000  Level Salt Lake Center
07:08PM 40.1769 -112.7550 263° West 451 519 32,000  Level Salt Lake Center
07:09PM 40.1614 -112.9175 263° West 450 518 32,000  Level Salt Lake Center
07:10PM 40.1433 -113.0781 262° West 447 514 32,000  Level Salt Lake Center
07:11PM 40.1272 -113.2394 263° West 448 516 32,000  Level Salt Lake Center
07:12PM 40.1103 -113.4039 262° West 456 525 32,000  Level Salt Lake Center
07:13PM 40.0925 -113.5669 262° West 456 525 32,000  Level Salt Lake Center
07:14PM 40.0756 -113.7317 262° West 457 526 32,000  Level Salt Lake Center
07:15PM 40.0581 -113.8975 262° West 461 531 32,000  Level Salt Lake Center
07:16PM 40.0369 -114.0956 262° West 461 531 32,000  Level Salt Lake Center
07:17PM 40.0178 -114.2614 261° West 463 533 32,000  Level Salt Lake Center
07:18PM 39.9992 -114.4278 262° West 465 535 32,000  Level Salt Lake Center
07:19PM 39.9803 -114.5933 262° West 464 534 32,000  Level Salt Lake Center
07:20PM 39.9597 -114.7731 262° West 463 533 32,000  Level Salt Lake Center
07:21PM 39.9408 -114.9328 261° West 464 534 32,000  Level Salt Lake Center
07:22PM 39.9192 -115.1172 261° West 462 532 32,000  Level Salt Lake Center
07:23PM 39.9000 -115.2761 261° West 463 533 32,000  Level Salt Lake Center
07:24PM 39.8811 -115.4347 261° West 462 532 32,000  Level Salt Lake Center
07:26PM 39.8550 -115.6222 260° West 467 537 32,000  Level Salt Lake Center
07:27PM 39.8356 -115.7800 261° West 461 531 32,000  Level Salt Lake Center
07:28PM 39.8111 -115.9656 260° West 463 533 32,000  Level Salt Lake Center
07:29PM 39.7925 -116.1233 261° West 463 533 32,000  Level Salt Lake Center
07:30PM 39.7722 -116.2803 261° West 459 528 32,000  Level Salt Lake Center
07:31PM 39.7481 -116.4644 260° West 459 528 32,000  Level Salt Lake Center
07:32PM 39.7264 -116.6214 260° West 459 528 32,000  Level Salt Lake Center
07:33PM 39.7017 -116.8053 260° West 460 529 32,000  Level Salt Lake Center
07:33PM 39.6881 -116.9119 261° West 463 533 32,000  Level Oakland Center
07:34PM 39.6622 -117.0961 260° West 463 533 32,000  Level Oakland Center
07:36PM 39.6411 -117.2550 260° West 464 534 32,000  Level Oakland Center
07:37PM 39.6153 -117.4375 260° West 461 531 32,000  Level Oakland Center
07:38PM 39.5917 -117.6022 260° West 465 535 32,000  Level Oakland Center
07:39PM 39.5681 -117.7664 259° West 464 534 32,000  Level Oakland Center
07:40PM 39.5442 -117.9319 259° West 468 539 32,000  Level Oakland Center
07:41PM 39.5211 -118.0950 260° West 462 532 32,000  Level Oakland Center
07:42PM 39.4964 -118.2592 259° West 466 536 32,000  Level Oakland Center
07:43PM 39.4728 -118.4208 259° West 459 528 32,000 -180 Level Oakland Center
07:44PM 39.4450 -118.5842 258° West 474 545 31,700 -540 Descending Oakland Center
07:45PM 39.4164 -118.7839 260° West 473 544 31,000 -840 Descending Oakland Center
07:46PM 39.3911 -118.9506 259° West 475 547 30,000 -1,020 Descending Oakland Center
07:47PM 39.3672 -119.1047 259° West 469 540 29,000 -1,020 Descending Oakland Center
07:48PM 39.3417 -119.2661 258° West 460 529 28,000 -1,020 Descending Oakland Center
07:49PM 39.3164 -119.4239 258° West 451 519 27,000 -1,080 Descending Oakland Center
07:50PM 39.2867 -119.6136 259° West 451 519 25,800 -1,080 Descending Oakland Center
07:51PM 39.2611 -119.7706 258° West 449 517 24,800 -900 Descending Oakland Center
07:52PM 39.2361 -119.9272 258° West 446 513 24,000 -840 Descending Oakland Center
07:53PM 39.2111 -120.0825 258° West 444 511 23,100 -1,020 Descending Oakland Center
07:54PM 39.1856 -120.2456 259° West 438 504 21,900 -1,440 Descending Oakland Center
07:55PM 39.1511 -120.3914 253° West 428 493 20,200 -1,980 Descending Oakland Center
07:56PM 39.1150 -120.5278 251° West 408 470 17,900 -2,340 Descending Oakland Center
07:57PM 39.0794 -120.6647 252° West 390 449 15,500 -2,280 Descending Oakland Center
07:58PM 39.0492 -120.7864 252° West 378 435 13,300 -2,220 Descending Oakland Center
07:59PM 39.0169 -120.9092 251° West 367 422 11,000 -1,680 Descending Oakland Center
08:00PM 38.9822 -121.0428 252° West 319 367 9,900 -1,140 Descending Oakland Center
08:01PM 38.9572 -121.1386 251° West 289 333 8,700 -1,200 Descending Oakland Center
08:02PM 38.9314 -121.2361 251° West 289 333 7,500 -1,320 Descending Oakland Center
08:03PM 38.9167 -121.3167 257° West 281 323 6,400 -1,260 Descending Northern Cal TRACON
08:04PM 38.8833 -121.4000 243° Southwest 271 312 5,300 -1,200 Descending Northern Cal TRACON
08:05PM 38.8833 -121.5000 270° West 258 297 4,100 -1,200 Descending Northern Cal TRACON
08:06PM 38.8500 -121.5667 237° Southwest 247 284 3,000 -1,080 Descending Northern Cal TRACON
08:07PM 38.8000 -121.5833 195° South 207 238 2,000 -1,080 Descending Northern Cal TRACON
08:08PM 38.7500 -121.5833 180° South 149 171 900 -1,140 Descending Northern Cal TRACON
08:11PM 38.6954 -121.5908 218° Southwest  Level Estimated
08:18PM 38.6954 -121.5908 218° Southwest  Level Estimated